Terminal Aerodrome Forecast
Issued by NWS

Home | Current Version | Previous Version | Text Only | Print | Product List | Glossary On
Versions: 1 2 3 4 5 6 7 8 9 10 11 12 13 14
679
FTUS46 KSEW 290720 AAA
TAFOLM
TAF AMD
KOLM 290720Z 2907/3006 19004KT P6SM SCT012
      TEMPO 2908/2912 BKN012
     FM291200 19004KT 5SM BR OVC008
     FM291800 23007KT P6SM OVC015
     FM292000 26009KT P6SM FEW030 SCT250
     FM300300 24005KT P6SM FEW030 SCT060 BKN250=

USA.gov is the U.S. government's official web portal to all federal, state and local government web resources and services.